sensor_id;sensor_type;location;lat;lon;timestamp;pressure;altitude;pressure_sealevel;temperature;humidity
68822;BME280;55834;50.870;4.606;2023-02-28T00:01:24;102307.03;;;-3.86;59.89
68822;BME280;55834;50.870;4.606;2023-02-28T00:03:50;102305.97;;;-4.35;61.10
68822;BME280;55834;50.870;4.606;2023-02-28T00:06:16;102312.97;;;-4.18;60.42
68822;BME280;55834;50.870;4.606;2023-02-28T00:08:41;102319.56;;;-4.23;61.08
68822;BME280;55834;50.870;4.606;2023-02-28T00:11:10;102306.22;;;-4.16;61.01
68822;BME280;55834;50.870;4.606;2023-02-28T00:13:38;102303.38;;;-4.20;60.51
68822;BME280;55834;50.870;4.606;2023-02-28T00:16:18;102309.38;;;-3.59;58.92
68822;BME280;55834;50.870;4.606;2023-02-28T00:18:43;102308.19;;;-3.80;59.66
68822;BME280;55834;50.870;4.606;2023-02-28T00:21:09;102301.72;;;-3.89;60.63
68822;BME280;55834;50.870;4.606;2023-02-28T00:23:35;102297.34;;;-3.58;59.41
68822;BME280;55834;50.870;4.606;2023-02-28T00:26:01;102302.75;;;-4.31;60.83
68822;BME280;55834;50.870;4.606;2023-02-28T00:28:26;102301.88;;;-4.46;61.34
68822;BME280;55834;50.870;4.606;2023-02-28T00:30:52;102304.94;;;-3.93;59.73
68822;BME280;55834;50.870;4.606;2023-02-28T00:33:24;102307.75;;;-3.88;60.58
68822;BME280;55834;50.870;4.606;2023-02-28T00:35:50;102308.63;;;-3.09;57.87
68822;BME280;55834;50.870;4.606;2023-02-28T00:38:16;102300.28;;;-2.71;56.36
68822;BME280;55834;50.870;4.606;2023-02-28T00:40:41;102304.81;;;-3.16;57.27
68822;BME280;55834;50.870;4.606;2023-02-28T00:43:07;102300.38;;;-2.51;55.44
68822;BME280;55834;50.870;4.606;2023-02-28T00:45:32;102311.28;;;-2.91;57.27
68822;BME280;55834;50.870;4.606;2023-02-28T00:47:57;102317.63;;;-3.96;59.70
68822;BME280;55834;50.870;4.606;2023-02-28T00:50:23;102315.03;;;-3.50;57.97
68822;BME280;55834;50.870;4.606;2023-02-28T00:52:48;102309.22;;;-2.80;56.57
68822;BME280;55834;50.870;4.606;2023-02-28T00:55:14;102309.69;;;-3.05;57.56
68822;BME280;55834;50.870;4.606;2023-02-28T00:57:40;102310.47;;;-2.74;56.71
68822;BME280;55834;50.870;4.606;2023-02-28T01:00:06;102306.50;;;-3.16;58.10
68822;BME280;55834;50.870;4.606;2023-02-28T01:02:32;102304.97;;;-3.12;57.55
68822;BME280;55834;50.870;4.606;2023-02-28T01:04:58;102314.38;;;-3.62;59.04
68822;BME280;55834;50.870;4.606;2023-02-28T01:07:23;102309.75;;;-3.04;57.89
68822;BME280;55834;50.870;4.606;2023-02-28T01:09:48;102302.78;;;-3.85;59.81
68822;BME280;55834;50.870;4.606;2023-02-28T01:12:14;102305.38;;;-3.21;57.50
68822;BME280;55834;50.870;4.606;2023-02-28T01:14:39;102313.41;;;-4.25;60.35
68822;BME280;55834;50.870;4.606;2023-02-28T01:17:05;102310.84;;;-4.40;61.44
68822;BME280;55834;50.870;4.606;2023-02-28T01:19:30;102324.41;;;-3.83;60.78
68822;BME280;55834;50.870;4.606;2023-02-28T01:21:56;102315.16;;;-3.94;60.89
68822;BME280;55834;50.870;4.606;2023-02-28T01:24:21;102314.50;;;-4.21;61.33
68822;BME280;55834;50.870;4.606;2023-02-28T01:26:46;102315.84;;;-3.51;58.98
68822;BME280;55834;50.870;4.606;2023-02-28T01:29:12;102310.78;;;-3.80;60.06
68822;BME280;55834;50.870;4.606;2023-02-28T01:31:37;102307.72;;;-4.34;61.15
68822;BME280;55834;50.870;4.606;2023-02-28T01:34:03;102315.81;;;-4.28;61.54
68822;BME280;55834;50.870;4.606;2023-02-28T01:36:28;102308.69;;;-4.02;60.75
68822;BME280;55834;50.870;4.606;2023-02-28T01:38:54;102318.38;;;-4.87;63.48
68822;BME280;55834;50.870;4.606;2023-02-28T01:41:22;102322.03;;;-4.54;63.09
68822;BME280;55834;50.870;4.606;2023-02-28T01:46:14;102319.97;;;-4.60;62.64
68822;BME280;55834;50.870;4.606;2023-02-28T01:48:48;102318.91;;;-4.34;61.78
68822;BME280;55834;50.870;4.606;2023-02-28T01:51:22;102319.97;;;-4.00;61.27
68822;BME280;55834;50.870;4.606;2023-02-28T01:53:56;102303.34;;;-3.43;58.92
68822;BME280;55834;50.870;4.606;2023-02-28T01:56:27;102311.28;;;-4.32;61.31
68822;BME280;55834;50.870;4.606;2023-02-28T01:58:54;102305.78;;;-3.77;60.54
68822;BME280;55834;50.870;4.606;2023-02-28T02:01:21;102307.53;;;-4.22;61.98
68822;BME280;55834;50.870;4.606;2023-02-28T02:03:56;102295.69;;;-3.58;60.06
68822;BME280;55834;50.870;4.606;2023-02-28T02:06:29;102296.06;;;-4.42;61.27
68822;BME280;55834;50.870;4.606;2023-02-28T02:08:55;102302.88;;;-3.67;59.85
68822;BME280;55834;50.870;4.606;2023-02-28T02:11:22;102294.53;;;-3.94;60.44
68822;BME280;55834;50.870;4.606;2023-02-28T02:17:18;102294.56;;;-4.54;62.00
68822;BME280;55834;50.870;4.606;2023-02-28T02:25:15;102286.84;;;-4.39;61.27
68822;BME280;55834;50.870;4.606;2023-02-28T02:30:50;102294.72;;;-4.06;61.15
68822;BME280;55834;50.870;4.606;2023-02-28T02:36:33;102279.22;;;-3.27;58.50
68822;BME280;55834;50.870;4.606;2023-02-28T02:46:44;102271.47;;;-3.44;58.72
68822;BME280;55834;50.870;4.606;2023-02-28T02:49:15;102284.34;;;-4.37;61.06
68822;BME280;55834;50.870;4.606;2023-02-28T02:51:43;102280.53;;;-4.44;62.06
68822;BME280;55834;50.870;4.606;2023-02-28T02:54:20;102275.22;;;-4.62;62.47
68822;BME280;55834;50.870;4.606;2023-02-28T02:56:48;102274.50;;;-4.59;62.13
68822;BME280;55834;50.870;4.606;2023-02-28T02:59:16;102276.34;;;-4.71;63.56
68822;BME280;55834;50.870;4.606;2023-02-28T03:01:48;102279.69;;;-5.02;63.82
68822;BME280;55834;50.870;4.606;2023-02-28T03:04:28;102275.97;;;-4.48;62.79
68822;BME280;55834;50.870;4.606;2023-02-28T03:06:55;102281.13;;;-4.03;62.36
68822;BME280;55834;50.870;4.606;2023-02-28T03:09:25;102280.59;;;-4.87;63.14
68822;BME280;55834;50.870;4.606;2023-02-28T03:11:52;102277.97;;;-4.59;62.32
68822;BME280;55834;50.870;4.606;2023-02-28T03:28:22;102274.34;;;-3.70;60.42
68822;BME280;55834;50.870;4.606;2023-02-28T03:31:00;102261.59;;;-3.67;59.22
68822;BME280;55834;50.870;4.606;2023-02-28T03:33:31;102275.56;;;-3.95;60.09
68822;BME280;55834;50.870;4.606;2023-02-28T03:36:04;102270.06;;;-4.01;60.29
68822;BME280;55834;50.870;4.606;2023-02-28T03:38:35;102269.56;;;-3.79;60.20
68822;BME280;55834;50.870;4.606;2023-02-28T03:41:13;102270.31;;;-3.65;59.80
68822;BME280;55834;50.870;4.606;2023-02-28T03:43:45;102278.34;;;-3.11;58.21
68822;BME280;55834;50.870;4.606;2023-02-28T03:46:16;102289.63;;;-4.04;60.57
68822;BME280;55834;50.870;4.606;2023-02-28T03:48:52;102276.31;;;-3.33;58.37
68822;BME280;55834;50.870;4.606;2023-02-28T03:51:20;102282.25;;;-3.67;59.58
68822;BME280;55834;50.870;4.606;2023-02-28T03:53:50;102295.53;;;-3.76;59.00
68822;BME280;55834;50.870;4.606;2023-02-28T03:56:25;102290.47;;;-3.74;59.19
68822;BME280;55834;50.870;4.606;2023-02-28T03:59:00;102288.41;;;-3.32;58.60
68822;BME280;55834;50.870;4.606;2023-02-28T04:01:35;102293.75;;;-4.08;59.72
68822;BME280;55834;50.870;4.606;2023-02-28T04:04:01;102289.06;;;-3.36;58.44
68822;BME280;55834;50.870;4.606;2023-02-28T04:06:30;102296.16;;;-3.49;59.18
68822;BME280;55834;50.870;4.606;2023-02-28T04:08:56;102292.41;;;-4.16;61.64
68822;BME280;55834;50.870;4.606;2023-02-28T04:11:27;102301.44;;;-4.97;63.29
68822;BME280;55834;50.870;4.606;2023-02-28T04:13:55;102291.47;;;-4.18;61.60
68822;BME280;55834;50.870;4.606;2023-02-28T04:16:21;102289.53;;;-3.60;59.47
68822;BME280;55834;50.870;4.606;2023-02-28T04:18:46;102293.41;;;-3.52;58.84
68822;BME280;55834;50.870;4.606;2023-02-28T04:21:12;102300.88;;;-4.04;59.57
68822;BME280;55834;50.870;4.606;2023-02-28T04:23:37;102282.28;;;-3.51;59.41
68822;BME280;55834;50.870;4.606;2023-02-28T04:26:03;102284.03;;;-3.50;59.25
68822;BME280;55834;50.870;4.606;2023-02-28T04:28:29;102277.94;;;-3.19;58.46
68822;BME280;55834;50.870;4.606;2023-02-28T04:31:00;102285.03;;;-3.48;58.24
68822;BME280;55834;50.870;4.606;2023-02-28T04:33:25;102299.09;;;-3.10;57.38
68822;BME280;55834;50.870;4.606;2023-02-28T04:36:05;102294.81;;;-3.09;57.24
68822;BME280;55834;50.870;4.606;2023-02-28T04:38:33;102308.06;;;-4.28;60.84
68822;BME280;55834;50.870;4.606;2023-02-28T04:40:59;102297.69;;;-4.44;62.59
68822;BME280;55834;50.870;4.606;2023-02-28T04:43:29;102293.50;;;-4.57;62.78
68822;BME280;55834;50.870;4.606;2023-02-28T04:45:56;102300.41;;;-4.86;64.25
68822;BME280;55834;50.870;4.606;2023-02-28T04:48:24;102298.22;;;-4.50;62.93
68822;BME280;55834;50.870;4.606;2023-02-28T04:50:51;102308.75;;;-5.18;64.39
68822;BME280;55834;50.870;4.606;2023-02-28T04:53:17;102313.44;;;-4.98;63.91
68822;BME280;55834;50.870;4.606;2023-02-28T04:55:43;102311.66;;;-4.56;63.41
68822;BME280;55834;50.870;4.606;2023-02-28T04:58:08;102309.19;;;-5.25;65.20
68822;BME280;55834;50.870;4.606;2023-02-28T05:00:33;102305.88;;;-4.52;63.77
68822;BME280;55834;50.870;4.606;2023-02-28T05:02:59;102308.03;;;-3.83;61.59
68822;BME280;55834;50.870;4.606;2023-02-28T05:05:25;102307.38;;;-4.70;62.77
68822;BME280;55834;50.870;4.606;2023-02-28T05:07:51;102310.97;;;-4.96;64.01
68822;BME280;55834;50.870;4.606;2023-02-28T05:10:16;102300.31;;;-4.13;62.91
68822;BME280;55834;50.870;4.606;2023-02-28T05:12:41;102308.59;;;-4.63;63.60
68822;BME280;55834;50.870;4.606;2023-02-28T05:15:10;102299.13;;;-4.64;64.24
68822;BME280;55834;50.870;4.606;2023-02-28T05:17:37;102295.50;;;-3.45;60.38
68822;BME280;55834;50.870;4.606;2023-02-28T05:20:03;102296.00;;;-3.52;60.24
68822;BME280;55834;50.870;4.606;2023-02-28T05:22:30;102309.13;;;-4.84;63.78
68822;BME280;55834;50.870;4.606;2023-02-28T05:24:55;102320.53;;;-5.36;65.09
68822;BME280;55834;50.870;4.606;2023-02-28T05:27:20;102301.38;;;-4.84;64.82
68822;BME280;55834;50.870;4.606;2023-02-28T05:29:46;102322.66;;;-5.71;66.94
68822;BME280;55834;50.870;4.606;2023-02-28T05:32:12;102317.59;;;-5.56;67.73
68822;BME280;55834;50.870;4.606;2023-02-28T05:34:38;102321.41;;;-5.49;66.91
68822;BME280;55834;50.870;4.606;2023-02-28T05:37:05;102313.06;;;-4.61;64.74
68822;BME280;55834;50.870;4.606;2023-02-28T05:39:30;102331.31;;;-5.42;65.82
68822;BME280;55834;50.870;4.606;2023-02-28T05:41:55;102314.63;;;-5.21;66.64
68822;BME280;55834;50.870;4.606;2023-02-28T05:44:21;102332.84;;;-5.72;67.60
68822;BME280;55834;50.870;4.606;2023-02-28T05:46:46;102329.13;;;-6.04;68.54
68822;BME280;55834;50.870;4.606;2023-02-28T05:49:11;102329.94;;;-5.50;67.43
68822;BME280;55834;50.870;4.606;2023-02-28T05:51:37;102321.81;;;-5.15;65.98
68822;BME280;55834;50.870;4.606;2023-02-28T05:54:05;102322.19;;;-5.09;66.38
68822;BME280;55834;50.870;4.606;2023-02-28T05:56:30;102316.78;;;-5.13;65.11
68822;BME280;55834;50.870;4.606;2023-02-28T05:58:56;102311.03;;;-4.52;63.44
68822;BME280;55834;50.870;4.606;2023-02-28T06:03:50;102313.88;;;-3.71;61.11
68822;BME280;55834;50.870;4.606;2023-02-28T06:06:15;102306.88;;;-3.41;59.27
68822;BME280;55834;50.870;4.606;2023-02-28T06:08:41;102308.34;;;-2.81;57.56
68822;BME280;55834;50.870;4.606;2023-02-28T06:11:08;102322.81;;;-4.11;60.96
68822;BME280;55834;50.870;4.606;2023-02-28T06:13:33;102327.25;;;-3.93;61.04
68822;BME280;55834;50.870;4.606;2023-02-28T06:16:03;102325.06;;;-4.61;62.66
68822;BME280;55834;50.870;4.606;2023-02-28T06:18:29;102321.59;;;-4.17;61.67
68822;BME280;55834;50.870;4.606;2023-02-28T06:20:55;102325.94;;;-4.76;63.40
68822;BME280;55834;50.870;4.606;2023-02-28T06:23:21;102327.94;;;-4.42;62.71
68822;BME280;55834;50.870;4.606;2023-02-28T06:25:46;102332.28;;;-4.56;63.81
68822;BME280;55834;50.870;4.606;2023-02-28T06:28:12;102345.31;;;-4.82;62.91
68822;BME280;55834;50.870;4.606;2023-02-28T06:30:38;102334.63;;;-5.16;64.30
68822;BME280;55834;50.870;4.606;2023-02-28T06:33:05;102345.06;;;-5.41;66.00
68822;BME280;55834;50.870;4.606;2023-02-28T06:35:30;102351.22;;;-5.53;66.97
68822;BME280;55834;50.870;4.606;2023-02-28T06:37:56;102348.28;;;-5.46;66.82
68822;BME280;55834;50.870;4.606;2023-02-28T06:40:21;102342.75;;;-5.65;68.05
68822;BME280;55834;50.870;4.606;2023-02-28T06:42:47;102342.06;;;-4.93;66.04
68822;BME280;55834;50.870;4.606;2023-02-28T06:45:12;102337.19;;;-5.16;65.64
68822;BME280;55834;50.870;4.606;2023-02-28T06:47:39;102342.56;;;-5.68;67.51
68822;BME280;55834;50.870;4.606;2023-02-28T06:50:07;102340.66;;;-5.16;66.40
68822;BME280;55834;50.870;4.606;2023-02-28T06:52:32;102344.03;;;-5.17;66.88
68822;BME280;55834;50.870;4.606;2023-02-28T06:55:01;102345.81;;;-4.88;65.85
68822;BME280;55834;50.870;4.606;2023-02-28T06:57:30;102348.84;;;-5.50;66.66
68822;BME280;55834;50.870;4.606;2023-02-28T07:00:00;102358.69;;;-5.57;67.79
68822;BME280;55834;50.870;4.606;2023-02-28T07:02:27;102352.63;;;-5.58;67.45
68822;BME280;55834;50.870;4.606;2023-02-28T07:04:52;102357.97;;;-5.55;67.40
68822;BME280;55834;50.870;4.606;2023-02-28T07:07:17;102352.28;;;-5.23;66.71
68822;BME280;55834;50.870;4.606;2023-02-28T07:09:43;102348.28;;;-4.89;65.06
68822;BME280;55834;50.870;4.606;2023-02-28T07:12:08;102352.38;;;-4.50;64.75
68822;BME280;55834;50.870;4.606;2023-02-28T07:14:36;102362.47;;;-5.37;66.93
68822;BME280;55834;50.870;4.606;2023-02-28T07:17:01;102362.72;;;-4.78;65.77
68822;BME280;55834;50.870;4.606;2023-02-28T07:19:27;102351.72;;;-5.04;66.36
68822;BME280;55834;50.870;4.606;2023-02-28T07:21:53;102352.28;;;-3.92;62.68
68822;BME280;55834;50.870;4.606;2023-02-28T07:24:18;102354.06;;;-4.21;64.29
68822;BME280;55834;50.870;4.606;2023-02-28T07:26:44;102357.63;;;-4.04;62.50
68822;BME280;55834;50.870;4.606;2023-02-28T07:29:09;102351.84;;;-4.30;63.56
68822;BME280;55834;50.870;4.606;2023-02-28T07:31:35;102358.59;;;-3.56;61.27
68822;BME280;55834;50.870;4.606;2023-02-28T07:34:00;102362.53;;;-3.15;59.80
68822;BME280;55834;50.870;4.606;2023-02-28T07:36:26;102371.28;;;-3.75;60.95
68822;BME280;55834;50.870;4.606;2023-02-28T07:38:51;102373.91;;;-3.28;59.42
68822;BME280;55834;50.870;4.606;2023-02-28T07:41:19;102369.81;;;-2.59;57.38
68822;BME280;55834;50.870;4.606;2023-02-28T07:43:45;102366.69;;;-2.69;57.60
68822;BME280;55834;50.870;4.606;2023-02-28T07:46:12;102359.81;;;-3.02;58.10
68822;BME280;55834;50.870;4.606;2023-02-28T07:48:40;102374.56;;;-3.32;59.00
68822;BME280;55834;50.870;4.606;2023-02-28T07:51:05;102366.66;;;-3.66;60.59
68822;BME280;55834;50.870;4.606;2023-02-28T07:53:31;102362.94;;;-3.24;59.70
68822;BME280;55834;50.870;4.606;2023-02-28T07:55:57;102362.88;;;-3.25;59.41
68822;BME280;55834;50.870;4.606;2023-02-28T07:58:23;102371.66;;;-3.22;58.60
68822;BME280;55834;50.870;4.606;2023-02-28T08:00:49;102360.84;;;-2.98;58.35
68822;BME280;55834;50.870;4.606;2023-02-28T08:03:18;102362.16;;;-2.05;56.07
68822;BME280;55834;50.870;4.606;2023-02-28T08:05:43;102375.13;;;-3.37;59.68
68822;BME280;55834;50.870;4.606;2023-02-28T08:08:09;102364.41;;;-2.13;55.64
68822;BME280;55834;50.870;4.606;2023-02-28T08:10:34;102363.69;;;-1.74;53.29
68822;BME280;55834;50.870;4.606;2023-02-28T08:13:00;102366.06;;;-1.61;53.74
68822;BME280;55834;50.870;4.606;2023-02-28T08:15:25;102365.44;;;-1.38;53.78
68822;BME280;55834;50.870;4.606;2023-02-28T08:17:51;102355.50;;;-0.90;51.28
68822;BME280;55834;50.870;4.606;2023-02-28T08:20:16;102362.78;;;-1.20;50.55
68822;BME280;55834;50.870;4.606;2023-02-28T08:22:42;102374.13;;;-1.73;52.37
68822;BME280;55834;50.870;4.606;2023-02-28T08:25:08;102358.59;;;-0.38;50.01
68822;BME280;55834;50.870;4.606;2023-02-28T08:27:34;102365.75;;;-0.54;48.93
68822;BME280;55834;50.870;4.606;2023-02-28T08:30:00;102355.19;;;0.26;47.57
68822;BME280;55834;50.870;4.606;2023-02-28T08:32:26;102370.84;;;0.06;48.53
68822;BME280;55834;50.870;4.606;2023-02-28T08:34:51;102368.69;;;-0.65;48.09
68822;BME280;55834;50.870;4.606;2023-02-28T08:37:17;102358.50;;;0.21;46.94
68822;BME280;55834;50.870;4.606;2023-02-28T08:39:42;102367.78;;;-0.47;47.38
68822;BME280;55834;50.870;4.606;2023-02-28T08:42:07;102365.34;;;-0.63;47.77
68822;BME280;55834;50.870;4.606;2023-02-28T08:44:33;102367.16;;;-0.20;46.66
68822;BME280;55834;50.870;4.606;2023-02-28T08:46:58;102371.47;;;-0.21;45.98
68822;BME280;55834;50.870;4.606;2023-02-28T08:49:25;102363.69;;;0.21;45.10
68822;BME280;55834;50.870;4.606;2023-02-28T08:51:50;102367.16;;;0.22;45.38
68822;BME280;55834;50.870;4.606;2023-02-28T08:54:15;102376.94;;;0.07;45.94
68822;BME280;55834;50.870;4.606;2023-02-28T08:56:45;102375.25;;;-0.54;46.81
68822;BME280;55834;50.870;4.606;2023-02-28T08:59:11;102371.31;;;-0.04;45.78
68822;BME280;55834;50.870;4.606;2023-02-28T09:01:36;102366.41;;;0.24;44.65
68822;BME280;55834;50.870;4.606;2023-02-28T09:04:02;102365.41;;;0.21;44.99
68822;BME280;55834;50.870;4.606;2023-02-28T09:06:28;102366.69;;;0.10;45.86
68822;BME280;55834;50.870;4.606;2023-02-28T09:08:56;102358.31;;;1.07;43.80
68822;BME280;55834;50.870;4.606;2023-02-28T09:11:23;102363.72;;;0.23;43.37
68822;BME280;55834;50.870;4.606;2023-02-28T09:13:49;102358.59;;;-0.38;44.30
68822;BME280;55834;50.870;4.606;2023-02-28T09:16:15;102364.59;;;0.67;43.87
68822;BME280;55834;50.870;4.606;2023-02-28T09:18:41;102356.00;;;1.39;41.94
68822;BME280;55834;50.870;4.606;2023-02-28T09:21:09;102348.59;;;1.75;40.95
68822;BME280;55834;50.870;4.606;2023-02-28T09:23:34;102358.31;;;1.55;39.53
68822;BME280;55834;50.870;4.606;2023-02-28T09:26:00;102345.06;;;1.23;40.09
68822;BME280;55834;50.870;4.606;2023-02-28T09:28:26;102355.06;;;1.36;41.80
68822;BME280;55834;50.870;4.606;2023-02-28T09:30:53;102349.56;;;1.53;40.75
68822;BME280;55834;50.870;4.606;2023-02-28T09:33:19;102347.06;;;1.81;39.72
68822;BME280;55834;50.870;4.606;2023-02-28T09:35:49;102353.66;;;1.97;39.00
68822;BME280;55834;50.870;4.606;2023-02-28T09:38:15;102351.28;;;1.04;40.47
68822;BME280;55834;50.870;4.606;2023-02-28T09:40:52;102349.56;;;-0.48;42.55
68822;BME280;55834;50.870;4.606;2023-02-28T09:43:21;102349.44;;;0.12;42.84
68822;BME280;55834;50.870;4.606;2023-02-28T09:46:12;102347.38;;;0.91;40.80
68822;BME280;55834;50.870;4.606;2023-02-28T09:48:42;102348.97;;;1.60;38.63
68822;BME280;55834;50.870;4.606;2023-02-28T09:53:46;102352.53;;;0.24;39.66
68822;BME280;55834;50.870;4.606;2023-02-28T09:56:25;102356.38;;;-0.50;39.52
68822;BME280;55834;50.870;4.606;2023-02-28T10:04:46;102342.75;;;1.31;36.78
68822;BME280;55834;50.870;4.606;2023-02-28T10:10:28;102327.84;;;2.03;37.10
68822;BME280;55834;50.870;4.606;2023-02-28T10:12:57;102333.44;;;2.16;36.27
68822;BME280;55834;50.870;4.606;2023-02-28T10:15:25;102334.06;;;2.36;35.08
68822;BME280;55834;50.870;4.606;2023-02-28T10:18:09;102328.44;;;2.52;34.50
68822;BME280;55834;50.870;4.606;2023-02-28T10:20:40;102340.13;;;1.56;34.84
68822;BME280;55834;50.870;4.606;2023-02-28T10:23:19;102345.50;;;0.66;35.13
68822;BME280;55834;50.870;4.606;2023-02-28T10:25:50;102329.56;;;1.26;36.90
68822;BME280;55834;50.870;4.606;2023-02-28T10:28:19;102342.38;;;1.22;36.37
68822;BME280;55834;50.870;4.606;2023-02-28T10:30:50;102341.47;;;1.45;35.33
68822;BME280;55834;50.870;4.606;2023-02-28T10:33:29;102334.03;;;1.56;35.57
68822;BME280;55834;50.870;4.606;2023-02-28T10:35:55;102339.50;;;2.15;35.18
68822;BME280;55834;50.870;4.606;2023-02-28T10:38:32;102325.16;;;1.49;34.25
68822;BME280;55834;50.870;4.606;2023-02-28T10:41:30;102324.47;;;1.80;36.10
68822;BME280;55834;50.870;4.606;2023-02-28T10:44:20;102316.34;;;2.54;34.71
68822;BME280;55834;50.870;4.606;2023-02-28T10:46:46;102315.03;;;1.33;36.37
68822;BME280;55834;50.870;4.606;2023-02-28T10:49:17;102325.34;;;1.55;35.34
68822;BME280;55834;50.870;4.606;2023-02-28T10:51:45;102320.53;;;0.93;35.79
68822;BME280;55834;50.870;4.606;2023-02-28T10:54:19;102318.69;;;1.38;35.74
68822;BME280;55834;50.870;4.606;2023-02-28T10:57:06;102312.38;;;1.82;33.85
68822;BME280;55834;50.870;4.606;2023-02-28T10:59:32;102308.00;;;2.36;34.39
68822;BME280;55834;50.870;4.606;2023-02-28T11:01:57;102307.53;;;2.79;33.97
68822;BME280;55834;50.870;4.606;2023-02-28T11:07:18;102294.53;;;3.11;33.28
68822;BME280;55834;50.870;4.606;2023-02-28T11:09:46;102293.91;;;3.53;33.67
68822;BME280;55834;50.870;4.606;2023-02-28T11:12:40;102303.78;;;3.65;32.21
68822;BME280;55834;50.870;4.606;2023-02-28T11:15:28;102293.63;;;3.10;32.94
68822;BME280;55834;50.870;4.606;2023-02-28T11:17:58;102300.16;;;2.64;32.98
68822;BME280;55834;50.870;4.606;2023-02-28T11:20:27;102294.72;;;3.50;33.86
68822;BME280;55834;50.870;4.606;2023-02-28T11:22:55;102291.06;;;3.44;32.95
68822;BME280;55834;50.870;4.606;2023-02-28T11:25:28;102288.59;;;3.50;33.24
68822;BME280;55834;50.870;4.606;2023-02-28T11:28:00;102278.56;;;3.32;33.63
68822;BME280;55834;50.870;4.606;2023-02-28T11:30:31;102273.72;;;3.82;32.58
68822;BME280;55834;50.870;4.606;2023-02-28T11:33:00;102292.00;;;3.15;31.45
68822;BME280;55834;50.870;4.606;2023-02-28T11:35:33;102296.81;;;1.84;32.55
68822;BME280;55834;50.870;4.606;2023-02-28T11:38:00;102284.50;;;1.80;34.13
68822;BME280;55834;50.870;4.606;2023-02-28T11:40:56;102287.38;;;1.11;33.84
68822;BME280;55834;50.870;4.606;2023-02-28T11:51:35;102279.03;;;1.98;30.98
68822;BME280;55834;50.870;4.606;2023-02-28T11:54:30;102259.53;;;2.14;32.00
68822;BME280;55834;50.870;4.606;2023-02-28T12:00:15;102253.00;;;3.53;30.89
68822;BME280;55834;50.870;4.606;2023-02-28T12:02:54;102263.19;;;3.77;31.24
68822;BME280;55834;50.870;4.606;2023-02-28T12:05:34;102253.34;;;3.67;28.25
68822;BME280;55834;50.870;4.606;2023-02-28T12:08:41;102252.00;;;3.15;30.38
68822;BME280;55834;50.870;4.606;2023-02-28T12:24:53;102237.09;;;3.44;30.63
68822;BME280;55834;50.870;4.606;2023-02-28T12:27:23;102241.88;;;2.94;29.81
68822;BME280;55834;50.870;4.606;2023-02-28T12:29:54;102220.25;;;3.31;30.74
68822;BME280;55834;50.870;4.606;2023-02-28T12:32:27;102237.19;;;3.47;30.30
68822;BME280;55834;50.870;4.606;2023-02-28T12:35:02;102236.22;;;1.90;32.26
68822;BME280;55834;50.870;4.606;2023-02-28T12:37:36;102222.47;;;2.53;31.86
68822;BME280;55834;50.870;4.606;2023-02-28T12:40:15;102220.16;;;2.95;31.06
68822;BME280;55834;50.870;4.606;2023-02-28T12:42:47;102217.44;;;3.22;31.44
68822;BME280;55834;50.870;4.606;2023-02-28T12:45:22;102214.91;;;2.62;32.10
68822;BME280;55834;50.870;4.606;2023-02-28T12:47:51;102217.72;;;3.34;30.99
68822;BME280;55834;50.870;4.606;2023-02-28T12:50:18;102207.25;;;3.69;30.87
68822;BME280;55834;50.870;4.606;2023-02-28T12:53:32;102202.84;;;3.67;30.76
68822;BME280;55834;50.870;4.606;2023-02-28T12:56:14;102201.44;;;3.82;30.11
68822;BME280;55834;50.870;4.606;2023-02-28T12:58:52;102196.81;;;3.69;29.70
68822;BME280;55834;50.870;4.606;2023-02-28T13:07:42;102207.81;;;2.58;29.80
68822;BME280;55834;50.870;4.606;2023-02-28T13:10:23;102197.28;;;2.85;30.56
68822;BME280;55834;50.870;4.606;2023-02-28T13:12:50;102198.38;;;2.61;30.81
68822;BME280;55834;50.870;4.606;2023-02-28T13:15:22;102191.25;;;3.19;29.59
68822;BME280;55834;50.870;4.606;2023-02-28T13:17:52;102190.00;;;2.41;31.01
68822;BME280;55834;50.870;4.606;2023-02-28T13:20:20;102182.22;;;2.13;30.18
68822;BME280;55834;50.870;4.606;2023-02-28T13:22:49;102186.59;;;2.76;30.90
68822;BME280;55834;50.870;4.606;2023-02-28T13:27:46;102174.59;;;3.50;30.64
68822;BME280;55834;50.870;4.606;2023-02-28T13:33:31;102185.19;;;3.56;30.38
68822;BME280;55834;50.870;4.606;2023-02-28T13:38:47;102207.75;;;1.42;31.89
68822;BME280;55834;50.870;4.606;2023-02-28T13:44:05;102191.59;;;2.38;30.41
68822;BME280;55834;50.870;4.606;2023-02-28T13:46:34;102191.50;;;2.65;31.14
68822;BME280;55834;50.870;4.606;2023-02-28T13:51:47;102186.94;;;3.21;31.17
68822;BME280;55834;50.870;4.606;2023-02-28T13:54:33;102186.28;;;3.30;29.79
68822;BME280;55834;50.870;4.606;2023-02-28T13:57:10;102187.22;;;3.32;30.25
68822;BME280;55834;50.870;4.606;2023-02-28T13:59:46;102187.25;;;2.68;31.10
68822;BME280;55834;50.870;4.606;2023-02-28T14:04:48;102172.47;;;2.67;31.52
68822;BME280;55834;50.870;4.606;2023-02-28T14:07:19;102172.19;;;2.26;31.31
68822;BME280;55834;50.870;4.606;2023-02-28T14:09:54;102182.97;;;2.70;30.42
68822;BME280;55834;50.870;4.606;2023-02-28T14:12:52;102174.63;;;3.17;30.20
68822;BME280;55834;50.870;4.606;2023-02-28T14:17:55;102164.69;;;3.73;30.72
68822;BME280;55834;50.870;4.606;2023-02-28T14:20:22;102167.25;;;3.34;30.29
68822;BME280;55834;50.870;4.606;2023-02-28T14:22:54;102159.44;;;4.13;30.52
68822;BME280;55834;50.870;4.606;2023-02-28T14:25:44;102158.00;;;3.86;29.62
68822;BME280;55834;50.870;4.606;2023-02-28T14:28:27;102164.19;;;3.90;30.93
68822;BME280;55834;50.870;4.606;2023-02-28T14:31:12;102165.72;;;4.21;28.77
68822;BME280;55834;50.870;4.606;2023-02-28T14:33:42;102156.47;;;3.94;29.98
68822;BME280;55834;50.870;4.606;2023-02-28T14:36:20;102153.75;;;3.91;30.90
68822;BME280;55834;50.870;4.606;2023-02-28T14:41:32;102152.59;;;4.62;29.95
68822;BME280;55834;50.870;4.606;2023-02-28T14:44:01;102164.16;;;4.74;29.98
68822;BME280;55834;50.870;4.606;2023-02-28T14:46:34;102159.13;;;4.85;29.06
68822;BME280;55834;50.870;4.606;2023-02-28T14:49:04;102154.31;;;4.61;29.03
68822;BME280;55834;50.870;4.606;2023-02-28T14:51:30;102153.50;;;4.64;29.16
68822;BME280;55834;50.870;4.606;2023-02-28T14:54:00;102159.88;;;4.78;29.87